• Join FlightAware (Why Join?)
  • Login
  • US Flag 
12:09AM EDT


 

Airport Tracker/Info


-or-


 

Live Flight TrackerFlight Track Log ✈ OPT429 ✈ 27-Jun-2014 ✈ KBWI - KSBN

Flight Track Log - Related Links

Times and Time Zones

All times are in EDT time to prevent confusion due to time zone crossing. See the OPT429 flight status page for this flight to view local times or setup timezone preferences in your user account.

Time Position Orientation Groundspeed Altitude Reporting Facility
EDT Latitude Longitude Course Direction KTS MPH feet Rate Location/Type
10:32AM 39.2000 -76.7333 322° Northwest 205 236 3,600  Level Potomac TRACON
10:33AM 39.2167 -76.8167 284° West 265 305 6,600 3,300 Climbing Potomac TRACON
10:34AM 39.2167 -76.9167 270° West 277 319 10,300 3,120 Climbing Potomac TRACON
10:34AM 39.2142 -76.9578 266° West 290 334 11,500 2,160 Climbing Washington Center
10:35AM 39.2192 -77.0703 273° West 325 374 13,700 2,100 Climbing Washington Center
10:36AM 39.2636 -77.1731 299° West 339 390 15,800 1,140 Climbing Washington Center
10:37AM 39.2909 -77.2241 322° Northwest  Level FlightAware Approximate
10:37AM 39.3119 -77.2894 298° West 380 437 16,000  Level Washington Center
10:38AM 39.3561 -77.4114 295° West 380 437 16,000 360 Level Washington Center
10:39AM 39.4064 -77.5308 299° West 406 467 16,800 480 Climbing Washington Center
10:40AM 39.4544 -77.6531 297° West 401 461 17,000 60 Climbing Washington Center
10:41AM 39.5022 -77.7728 297° West 389 448 17,000 420 Level Washington Center
10:42AM 39.5458 -77.8953 295° West 376 433 17,900 1,200 Climbing Washington Center
10:43AM 39.5678 -77.9617 293° West 368 423 18,900 1,620 Climbing Cleveland Center
10:44AM 39.6044 -78.0853 291° West 367 422 20,500 1,620 Climbing Cleveland Center
10:45AM 39.6497 -78.2353 291° West 369 425 22,300 1,620 Climbing Cleveland Center
10:46AM 39.6861 -78.3631 290° West 372 428 23,900 780 Climbing Cleveland Center
10:47AM 39.7247 -78.4944 291° West 388 447 24,000  Climbing Cleveland Center
10:48AM 39.7669 -78.6350 291° West 414 476 24,000  Level Cleveland Center
10:49AM 39.8103 -78.7828 291° West 422 486 24,000  Level Cleveland Center
10:50AM 39.8508 -78.9206 291° West 412 474 24,000 480 Level Cleveland Center
10:51AM 39.8944 -79.0694 291° West 410 472 25,000 1,200 Climbing Cleveland Center
10:52AM 39.9325 -79.2053 290° West 404 465 26,500 1,440 Climbing Cleveland Center
10:53AM 39.9714 -79.3378 291° West 396 456 28,000 1,440 Climbing Cleveland Center
10:54AM 40.0086 -79.4678 291° West 386 444 29,500 1,560 Climbing Cleveland Center
10:55AM 40.0533 -79.6292 290° West 388 447 31,300 1,560 Climbing Cleveland Center
10:56AM 40.0917 -79.7631 291° West 392 451 32,800 1,260 Climbing Cleveland Center
10:57AM 40.1297 -79.8986 290° West 393 452 34,000 540 Climbing Cleveland Center
10:58AM 40.1686 -80.0400 290° West 406 467 34,000  Level Cleveland Center
10:59AM 40.2081 -80.1831 290° West 410 472 34,000  Level Cleveland Center
11:00AM 40.2481 -80.3250 290° West 410 472 34,000  Level Cleveland Center
11:01AM 40.2861 -80.4642 290° West 404 465 34,000  Level Cleveland Center
11:02AM 40.3314 -80.6297 290° West 403 464 34,000  Level Cleveland Center
11:03AM 40.3683 -80.7678 289° West 403 464 34,000 240 Level Cleveland Center
11:04AM 40.4056 -80.9044 290° West 402 463 34,600 960 Climbing Cleveland Center
11:05AM 40.4428 -81.0433 289° West 402 463 36,100 1,500 Climbing Cleveland Center
11:07AM 40.4792 -81.1792 289° West 400 460 37,700 1,500 Climbing Cleveland Center
11:08AM 40.5144 -81.3108 289° West 389 448 39,300 1,500 Climbing Cleveland Center
11:09AM 40.5536 -81.4628 289° West 383 441 40,800 1,200 Climbing Cleveland Center
11:10AM 40.5889 -81.5925 290° West 374 430 41,900 1,020 Climbing Cleveland Center
11:11AM 40.6231 -81.7239 289° West 374 430 43,000 480 Climbing Cleveland Center
11:12AM 40.6569 -81.8575 289° West 377 434 43,000  Level Cleveland Center
11:13AM 40.6933 -81.9983 289° West 395 455 43,000  Level Cleveland Center
11:14AM 40.7297 -82.1383 289° West 398 458 43,000  Level Cleveland Center
11:15AM 40.7619 -82.2692 288° West 377 434 43,000  Level Cleveland Center
11:16AM 40.8011 -82.4167 289° West 366 421 43,000  Level Cleveland Center
11:17AM 40.8322 -82.5428 288° West 362 417 43,000  Level Cleveland Center
11:18AM 40.8636 -82.6697 288° West 361 415 43,000  Level Cleveland Center
11:19AM 40.8953 -82.7958 288° West 360 414 43,000  Level Cleveland Center
11:20AM 40.9269 -82.9206 289° West 357 411 43,000  Level Cleveland Center
11:21AM 40.9569 -83.0456 288° West 356 410 43,000  Level Cleveland Center
11:22AM 40.9867 -83.1633 289° West 355 409 43,000  Level Cleveland Center
11:23AM 41.0236 -83.3100 289° West 354 407 43,000  Level Cleveland Center
11:24AM 41.0531 -83.4319 288° West 353 406 43,000  Level Cleveland Center
11:25AM 41.0819 -83.5550 287° West 353 406 43,000  Level Cleveland Center
11:26AM 41.1111 -83.6767 288° West 348 400 43,000  Level Cleveland Center
11:27AM 41.1403 -83.7992 288° West 348 400 43,000 -360 Level Cleveland Center
11:28AM 41.1708 -83.9264 288° West 348 400 42,300 -900 Descending Cleveland Center
11:29AM 41.1986 -84.0450 287° West 343 395 41,200 -1,080 Descending Cleveland Center
11:30AM 41.2206 -84.1394 287° West 341 392 40,400 -1,140 Descending Cleveland Center
11:31AM 41.2533 -84.2786 287° West 331 381 39,200 -1,080 Descending Cleveland Center
11:32AM 41.2800 -84.3931 287° West 329 379 38,200 -1,020 Descending Cleveland Center
11:33AM 41.3064 -84.5067 287° West 328 377 37,100 -1,020 Descending Cleveland Center
11:34AM 41.3328 -84.6222 287° West 327 376 36,100 -1,020 Descending Cleveland Center
11:35AM 41.3592 -84.7386 287° West 328 377 35,100 -1,020 Descending Cleveland Center
11:36AM 41.3858 -84.8517 287° West 327 376 34,100 -1,080 Descending Chicago Center
11:37AM 41.4117 -84.9658 287° West 323 372 33,000 -1,020 Descending Chicago Center
11:38AM 41.4369 -85.0806 286° West 322 371 32,000 -1,380 Descending Chicago Center
11:39AM 41.4636 -85.1967 287° West 323 372 30,200 -1,980 Descending Chicago Center
11:40AM 41.4897 -85.3236 285° West 344 396 28,000 -2,520 Descending Chicago Center
11:41AM 41.5189 -85.4553 287° West 357 411 25,100 -3,300 Descending Chicago Center
11:42AM 41.5533 -85.6017 287° West 337 388 21,300 -3,480 Descending Chicago Center
11:43AM 41.5789 -85.7228 286° West 336 387 18,000 -3,120 Descending Chicago Center
11:44AM 41.6044 -85.8389 286° West 325 374 15,000 -3,120 Descending Chicago Center
11:45AM 41.6036 -85.9578 270° West 320 368 11,700 -2,820 Descending Chicago Center
11:46AM 41.5850 -86.0689 257° West 310 357 9,200 -1,620 Descending Chicago Center
11:48AM 41.5686 -86.1664 257° West 273 314 8,400 -900 Descending Chicago Center
11:49AM 41.5653 -86.2619 267° West 259 298 7,400 -1,080 Descending Chicago Center
11:50AM 41.5786 -86.3753 279° West 258 297 6,200 -1,080 Descending Chicago Center
11:51AM 41.6108 -86.4489 300° West 230 265 5,200 -1,020 Descending Chicago Center
11:52AM 41.6694 -86.4589 353° North 221 254 4,100 -1,260 Descending Chicago Center
11:53AM 41.7083 -86.4267 32° Northeast 227 261 2,700 -1,020 Descending Chicago Center
11:54AM 41.7025 -86.3800 99° East 163 188 2,000 -660 Descending Chicago Center
11:55AM 41.7047 -86.3306 87° East 141 162 1,400 -600 Descending Chicago Center